Time;durP1;ratioP1;P1;durP2;ratioP2;P2;SDS_P1;SDS_P2;PMS_P1;PMS_P2;Temp;Humidity;BMP_temperature;BMP_pressure;BME280_temperature;BME280_humidity;BME280_pressure;Samples;Min_cycle;Max_cycle;Signal;HPM_P1;HPM_P2
2021/12/28 00:01:31;;;;;;;32.73;17.50;;;1.90;84.80;;;;;;6349965;28;20181;-66
2021/12/28 00:04:32;;;;;;;36.67;20.10;;;2.00;85.20;;;;;;6365104;28;20180;-66
2021/12/28 00:07:33;;;;;;;42.37;22.33;;;1.90;85.30;;;;;;6347637;28;20233;-66
2021/12/28 00:10:33;;;;;;;43.80;22.33;;;1.90;85.50;;;;;;6330790;28;20246;-66
2021/12/28 00:13:35;;;;;;;44.67;22.90;;;1.90;85.60;;;;;;6331351;28;20180;-66
2021/12/28 00:19:55;;;;;;;36.30;20.27;;;1.90;85.50;;;;;;6347870;28;20192;-66
2021/12/28 00:22:57;;;;;;;40.70;20.87;;;1.90;85.40;;;;;;6347184;28;20195;-70
2021/12/28 00:25:58;;;;;;;44.40;23.00;;;1.90;85.20;;;;;;6305537;28;20193;-70
2021/12/28 00:28:59;;;;;;;40.40;23.07;;;1.80;85.70;;;;;;6306120;28;20203;-70
2021/12/28 00:32:00;;;;;;;38.73;22.70;;;1.80;85.80;;;;;;6305976;28;20200;-70
2021/12/28 00:35:02;;;;;;;40.53;21.60;;;1.60;86.80;;;;;;6308389;28;20392;-67
2021/12/28 00:38:04;;;;;;;39.17;21.17;;;1.80;86.00;;;;;;6313300;28;20242;-67
2021/12/28 00:41:05;;;;;;;32.47;17.67;;;1.70;86.20;;;;;;6347864;28;20188;-66
2021/12/28 00:44:06;;;;;;;38.30;19.73;;;1.80;86.00;;;;;;6351992;28;20192;-67
2021/12/28 00:47:07;;;;;;;36.47;20.63;;;1.90;85.60;;;;;;6318373;28;20233;-67
2021/12/28 00:50:11;;;;;;;33.57;20.87;;;1.80;85.70;;;;;;6334944;28;20188;-68
2021/12/28 00:53:12;;;;;;;35.27;20.53;;;1.90;86.00;;;;;;6368506;27;20184;-68
2021/12/28 00:56:12;;;;;;;37.27;20.80;;;1.80;86.10;;;;;;6352208;28;20237;-68
2021/12/28 00:59:13;;;;;;;46.77;22.13;;;1.90;85.90;;;;;;6351519;28;20193;-68
2021/12/28 01:02:14;;;;;;;37.17;19.50;;;1.80;86.20;;;;;;6317797;28;20219;-68
2021/12/28 01:05:17;;;;;;;40.63;22.50;;;1.80;86.40;;;;;;6334871;28;20266;-68
2021/12/28 01:08:18;;;;;;;37.17;20.90;;;1.80;86.50;;;;;;6334314;28;20200;-67
2021/12/28 01:11:19;;;;;;;32.70;18.17;;;1.90;85.90;;;;;;6334695;28;20250;-67
2021/12/28 01:14:19;;;;;;;31.33;17.30;;;1.90;85.80;;;;;;6334481;28;20180;-66
2021/12/28 01:17:20;;;;;;;33.20;20.97;;;1.90;85.90;;;;;;6325895;28;20273;-66
2021/12/28 01:20:22;;;;;;;35.90;19.57;;;1.90;86.10;;;;;;6343172;27;20188;-66
2021/12/28 01:23:23;;;;;;;31.50;17.50;;;1.90;86.20;;;;;;6324561;28;20261;-67
2021/12/28 01:26:23;;;;;;;42.03;21.00;;;2.00;85.90;;;;;;6367097;27;20202;-68
2021/12/28 01:29:24;;;;;;;40.37;22.53;;;2.00;85.80;;;;;;6325164;28;20287;-68
2021/12/28 01:32:25;;;;;;;35.00;19.27;;;1.80;86.50;;;;;;6325695;28;20187;-67
2021/12/28 01:35:27;;;;;;;33.20;20.43;;;1.80;86.70;;;;;;6352952;27;20265;-67
2021/12/28 01:38:28;;;;;;;40.50;21.00;;;1.80;87.20;;;;;;6333364;28;20230;-67
2021/12/28 01:41:30;;;;;;;36.90;18.17;;;1.90;86.20;;;;;;6333694;28;20216;-67
2021/12/28 01:44:30;;;;;;;30.77;17.60;;;1.90;86.20;;;;;;6325574;28;20236;-67
2021/12/28 01:47:31;;;;;;;42.83;21.63;;;1.90;86.00;;;;;;6348081;28;20205;-67
2021/12/28 01:50:33;;;;;;;41.80;20.87;;;1.80;86.50;;;;;;6333522;28;20200;-67
2021/12/28 01:53:35;;;;;;;42.40;20.03;;;1.70;87.20;;;;;;6314458;28;20196;-67
2021/12/28 01:56:40;;;;;;;33.13;18.80;;;1.80;87.40;;;;;;6341871;28;20211;-67
2021/12/28 01:59:40;;;;;;;41.97;20.00;;;1.80;86.60;;;;;;6381896;27;20196;-67
2021/12/28 02:02:41;;;;;;;38.13;19.80;;;1.90;86.40;;;;;;6325249;28;20245;-67
2021/12/28 02:05:43;;;;;;;40.87;20.83;;;1.80;86.50;;;;;;6345505;28;20192;-67
2021/12/28 02:08:44;;;;;;;42.20;21.30;;;1.90;86.50;;;;;;6350297;28;20187;-67
2021/12/28 02:11:45;;;;;;;39.67;20.30;;;1.90;86.40;;;;;;6316113;28;20258;-67
2021/12/28 02:14:46;;;;;;;39.77;21.90;;;1.80;86.50;;;;;;6316010;28;20195;-68
2021/12/28 02:17:47;;;;;;;41.83;20.37;;;1.80;86.90;;;;;;6350251;28;20219;-68
2021/12/28 02:20:49;;;;;;;32.23;17.90;;;1.80;87.60;;;;;;6333010;28;20213;-67
2021/12/28 02:23:50;;;;;;;40.67;21.67;;;1.80;87.00;;;;;;6332522;28;20195;-68
2021/12/28 02:26:51;;;;;;;36.47;20.13;;;1.80;87.00;;;;;;6333300;28;20187;-67
2021/12/28 02:29:52;;;;;;;44.33;21.63;;;1.80;87.10;;;;;;6349720;28;20289;-67
2021/12/28 02:32:53;;;;;;;44.77;23.93;;;1.80;87.10;;;;;;6349591;28;20219;-68
2021/12/28 02:35:58;;;;;;;40.50;21.73;;;1.70;87.60;;;;;;6332828;28;20191;-68
2021/12/28 02:38:59;;;;;;;35.93;19.03;;;1.70;88.00;;;;;;6338501;28;20211;-68
2021/12/28 02:42:00;;;;;;;39.43;22.37;;;1.70;88.10;;;;;;6322472;28;20190;-68
2021/12/28 02:45:10;;;;;;;42.63;21.47;;;1.60;88.00;;;;;;6330331;28;20183;-68
2021/12/28 02:48:11;;;;;;;37.27;18.73;;;1.80;87.40;;;;;;6338932;28;20188;-68
2021/12/28 02:51:15;;;;;;;34.33;17.97;;;1.80;87.20;;;;;;6337307;28;20199;-67
2021/12/28 02:54:16;;;;;;;45.10;22.53;;;1.80;87.10;;;;;;6306511;28;20192;-67
2021/12/28 02:57:16;;;;;;;34.63;19.70;;;1.80;87.30;;;;;;6323129;28;20246;-67
2021/12/28 03:00:38;;;;;;;34.10;19.17;;;1.80;86.90;;;;;;6322728;28;20202;-67
2021/12/28 03:03:39;;;;;;;41.90;21.50;;;1.80;87.20;;;;;;6334552;28;20280;-68
2021/12/28 03:06:39;;;;;;;33.83;18.73;;;1.70;87.50;;;;;;6331351;28;20290;-68
2021/12/28 03:09:40;;;;;;;36.33;19.40;;;1.70;87.90;;;;;;6322772;28;20199;-68
2021/12/28 03:12:41;;;;;;;40.00;21.07;;;1.60;87.70;;;;;;6298529;28;20219;-68
2021/12/28 03:15:42;;;;;;;33.33;19.63;;;1.80;87.10;;;;;;6292293;28;20271;-67
2021/12/28 03:18:44;;;;;;;35.87;17.80;;;1.70;87.50;;;;;;6297079;28;20188;-67
2021/12/28 03:21:46;;;;;;;37.43;19.17;;;1.70;87.80;;;;;;6302280;28;20194;-67
2021/12/28 03:24:47;;;;;;;33.87;18.40;;;1.80;87.20;;;;;;6306900;28;20195;-67
2021/12/28 03:27:48;;;;;;;27.80;15.23;;;1.80;87.20;;;;;;6297930;28;20223;-67
2021/12/28 03:30:52;;;;;;;30.20;15.53;;;1.90;87.00;;;;;;6314911;28;20721;-67
2021/12/28 03:33:55;;;;;;;27.33;15.37;;;1.90;86.70;;;;;;6314494;28;20215;-67
2021/12/28 03:36:55;;;;;;;32.13;17.67;;;1.90;86.90;;;;;;6297811;28;20242;-67
2021/12/28 03:39:58;;;;;;;32.77;17.63;;;1.90;86.70;;;;;;6320622;28;20192;-67
2021/12/28 03:42:59;;;;;;;34.07;17.17;;;2.00;86.40;;;;;;6305725;28;20219;-67
2021/12/28 03:46:00;;;;;;;31.87;17.23;;;2.00;86.60;;;;;;6306601;28;20176;-67
2021/12/28 03:49:01;;;;;;;34.00;16.60;;;2.00;86.60;;;;;;6323056;28;20273;-67
2021/12/28 03:52:02;;;;;;;31.53;17.67;;;2.00;86.70;;;;;;6306130;28;20182;-67
2021/12/28 03:55:04;;;;;;;39.33;20.07;;;2.00;86.40;;;;;;6306415;28;20195;-67
2021/12/28 03:58:05;;;;;;;39.77;19.27;;;2.00;86.00;;;;;;6306118;28;20212;-67
2021/12/28 04:01:08;;;;;;;38.00;21.07;;;1.90;86.50;;;;;;6305450;28;20194;-67
2021/12/28 04:04:09;;;;;;;38.07;18.67;;;1.80;86.40;;;;;;6305963;28;20195;-68
2021/12/28 04:07:16;;;;;;;31.70;17.40;;;1.80;87.50;;;;;;6305944;28;20204;-68
2021/12/28 04:10:18;;;;;;;36.60;18.97;;;1.80;87.30;;;;;;6295048;28;20228;-68
2021/12/28 04:13:21;;;;;;;36.53;18.23;;;1.90;86.70;;;;;;6330684;28;20189;-67
2021/12/28 04:16:23;;;;;;;34.53;17.30;;;1.90;86.80;;;;;;6349959;28;20210;-67
2021/12/28 04:19:23;;;;;;;32.87;17.40;;;1.90;87.00;;;;;;6352426;28;20191;-67
2021/12/28 04:22:24;;;;;;;31.17;16.77;;;1.90;86.60;;;;;;6335519;28;20244;-67
2021/12/28 04:25:25;;;;;;;36.13;19.90;;;1.90;86.70;;;;;;6335301;28;20245;-67
2021/12/28 04:28:26;;;;;;;39.90;19.13;;;2.00;86.60;;;;;;6318142;28;20195;-67
2021/12/28 04:31:27;;;;;;;40.93;18.37;;;2.00;86.40;;;;;;6355655;27;20192;-67
2021/12/28 04:34:28;;;;;;;37.97;17.97;;;1.90;86.40;;;;;;6327477;28;20253;-69
2021/12/28 04:37:29;;;;;;;33.50;17.37;;;1.90;86.30;;;;;;6351218;28;20246;-69
2021/12/28 04:40:30;;;;;;;31.70;18.90;;;1.90;86.50;;;;;;6335456;28;20236;-70
2021/12/28 04:43:31;;;;;;;28.77;15.97;;;1.90;86.90;;;;;;6328379;28;20183;-69
2021/12/28 04:46:32;;;;;;;32.50;15.67;;;1.90;87.10;;;;;;6316427;28;20228;-70
2021/12/28 04:49:33;;;;;;;42.50;19.63;;;2.00;86.80;;;;;;6321322;28;20192;-69
2021/12/28 04:52:37;;;;;;;34.93;18.27;;;2.00;86.40;;;;;;6340386;28;20658;-69
2021/12/28 04:55:42;;;;;;;35.07;19.50;;;2.00;86.60;;;;;;6355759;27;20218;-70
2021/12/28 04:58:42;;;;;;;40.67;18.57;;;2.00;86.70;;;;;;6333483;28;20218;-69
2021/12/28 05:01:44;;;;;;;42.07;19.40;;;2.00;86.60;;;;;;6359917;27;20194;-69
2021/12/28 05:04:45;;;;;;;40.03;21.53;;;2.00;86.70;;;;;;6355824;27;20192;-68
2021/12/28 05:07:46;;;;;;;33.27;19.20;;;2.00;86.70;;;;;;6331947;28;20203;-69
2021/12/28 05:10:48;;;;;;;40.10;18.87;;;2.00;86.70;;;;;;6327963;28;20284;-67
2021/12/28 05:13:49;;;;;;;34.40;17.43;;;2.00;86.30;;;;;;6329428;28;20193;-67
2021/12/28 05:16:50;;;;;;;31.50;16.93;;;2.00;86.10;;;;;;6306185;28;20208;-67
2021/12/28 05:19:51;;;;;;;27.77;15.73;;;2.00;86.10;;;;;;6303821;28;20326;-67
2021/12/28 05:22:51;;;;;;;35.97;18.90;;;1.90;86.40;;;;;;6334222;28;20195;-66
2021/12/28 05:25:52;;;;;;;29.57;16.77;;;1.90;86.10;;;;;;6329142;28;20286;-66
2021/12/28 05:28:53;;;;;;;41.03;19.77;;;1.90;86.40;;;;;;6335515;28;20234;-66
2021/12/28 05:31:54;;;;;;;36.93;19.30;;;1.90;86.60;;;;;;6336370;27;20188;-66
2021/12/28 05:34:55;;;;;;;33.70;16.90;;;1.90;86.60;;;;;;6341191;28;20202;-67
2021/12/28 05:37:56;;;;;;;44.17;22.57;;;1.90;86.80;;;;;;6350846;28;20215;-68
2021/12/28 05:40:56;;;;;;;32.10;17.97;;;1.90;86.50;;;;;;6333898;28;20184;-67
2021/12/28 05:43:57;;;;;;;39.97;18.47;;;1.90;86.90;;;;;;6333433;28;20194;-67
2021/12/28 05:46:58;;;;;;;40.27;19.53;;;1.90;87.00;;;;;;6333948;28;20191;-67
2021/12/28 05:49:59;;;;;;;40.97;21.60;;;1.90;86.90;;;;;;6351011;28;20194;-66
2021/12/28 05:53:00;;;;;;;41.67;21.57;;;1.90;86.50;;;;;;6324219;28;20223;-67
2021/12/28 05:56:01;;;;;;;36.03;19.33;;;1.90;86.70;;;;;;6350212;28;20218;-67
2021/12/28 05:59:03;;;;;;;37.00;19.77;;;1.90;86.80;;;;;;6316766;28;20240;-67
2021/12/28 06:02:04;;;;;;;39.50;19.43;;;2.00;86.60;;;;;;6333195;28;20198;-67
2021/12/28 06:05:06;;;;;;;42.10;20.80;;;2.10;86.40;;;;;;6333246;28;20179;-65
2021/12/28 06:08:06;;;;;;;47.30;22.63;;;2.00;86.10;;;;;;6321508;28;20264;-65
2021/12/28 06:11:12;;;;;;;46.33;23.77;;;1.90;86.80;;;;;;6350324;28;20249;-64
2021/12/28 06:14:13;;;;;;;43.43;23.10;;;1.80;86.90;;;;;;6350835;27;20199;-65
2021/12/28 06:17:13;;;;;;;48.20;22.63;;;1.80;87.30;;;;;;6332896;28;20214;-65
2021/12/28 06:20:14;;;;;;;39.33;20.73;;;1.80;87.40;;;;;;6349609;28;20196;-65
2021/12/28 06:23:16;;;;;;;50.27;23.37;;;1.90;87.00;;;;;;6316023;28;20200;-65
2021/12/28 06:26:16;;;;;;;47.27;23.53;;;1.90;86.90;;;;;;6332774;28;20191;-65
2021/12/28 06:29:18;;;;;;;35.17;19.93;;;1.90;86.80;;;;;;6324452;28;20199;-65
2021/12/28 06:32:19;;;;;;;34.97;18.63;;;1.90;87.10;;;;;;6324015;28;20188;-65
2021/12/28 06:35:20;;;;;;;34.97;19.17;;;1.70;86.40;;;;;;6336682;28;20325;-65
2021/12/28 06:38:22;;;;;;;28.97;15.33;;;1.80;86.60;;;;;;6354801;27;20254;-65
2021/12/28 06:41:23;;;;;;;32.90;16.23;;;1.80;86.50;;;;;;6353798;27;20214;-65
2021/12/28 06:44:24;;;;;;;31.17;14.93;;;1.80;86.10;;;;;;6355148;27;20192;-65
2021/12/28 06:47:25;;;;;;;34.27;17.20;;;1.90;85.50;;;;;;6334505;28;20795;-65
2021/12/28 06:50:25;;;;;;;36.50;18.10;;;1.90;85.60;;;;;;6340480;28;20195;-65
2021/12/28 06:53:26;;;;;;;35.57;17.23;;;1.80;86.20;;;;;;6330765;28;20218;-65
2021/12/28 06:56:27;;;;;;;34.37;16.70;;;1.80;86.00;;;;;;6333089;28;20217;-65
2021/12/28 06:59:28;;;;;;;36.03;16.90;;;1.80;86.30;;;;;;6305743;28;20229;-65
2021/12/28 07:02:30;;;;;;;30.83;16.33;;;1.90;86.00;;;;;;6316104;28;20191;-65
2021/12/28 07:05:31;;;;;;;33.23;16.17;;;1.90;85.80;;;;;;6332003;28;20290;-65
2021/12/28 07:08:32;;;;;;;36.07;19.03;;;2.00;85.80;;;;;;6331620;28;20295;-64
2021/12/28 07:11:32;;;;;;;36.93;19.97;;;2.00;85.80;;;;;;6348360;28;20235;-64
2021/12/28 07:14:33;;;;;;;30.37;16.83;;;2.00;85.80;;;;;;6338995;28;20222;-64
2021/12/28 07:17:34;;;;;;;56.43;25.13;;;2.00;86.20;;;;;;6332604;28;20254;-65
2021/12/28 07:20:36;;;;;;;48.00;24.10;;;1.90;86.50;;;;;;6325688;28;20187;-64
2021/12/28 07:23:36;;;;;;;49.07;22.90;;;1.80;87.10;;;;;;6365144;27;20188;-62
2021/12/28 07:26:37;;;;;;;47.10;21.73;;;1.90;87.30;;;;;;6322094;28;20198;-64
2021/12/28 07:29:38;;;;;;;54.83;26.23;;;2.00;87.00;;;;;;6351462;27;20190;-64
2021/12/28 07:32:40;;;;;;;55.33;24.87;;;1.90;87.20;;;;;;6341663;28;20216;-64
2021/12/28 07:35:41;;;;;;;63.17;27.63;;;1.90;86.90;;;;;;6323678;28;20271;-65
2021/12/28 07:38:42;;;;;;;59.20;27.23;;;2.00;87.20;;;;;;6322716;28;20226;-64
2021/12/28 07:41:43;;;;;;;60.93;27.60;;;1.90;86.70;;;;;;6327435;28;20228;-64
2021/12/28 07:44:43;;;;;;;48.93;22.33;;;1.90;87.10;;;;;;6351618;28;20278;-64
2021/12/28 07:47:44;;;;;;;60.40;26.47;;;1.90;87.50;;;;;;6316272;28;20554;-64
2021/12/28 07:50:45;;;;;;;62.50;28.20;;;1.90;87.10;;;;;;6344633;28;20203;-65
2021/12/28 07:53:46;;;;;;;51.20;25.00;;;2.00;87.00;;;;;;6346296;27;20187;-63
2021/12/28 07:56:47;;;;;;;59.77;26.67;;;1.90;87.50;;;;;;6373904;27;20222;-63
2021/12/28 07:59:48;;;;;;;62.77;26.43;;;1.90;87.90;;;;;;6353681;28;20295;-62
2021/12/28 08:02:49;;;;;;;60.43;26.33;;;2.10;86.70;;;;;;6332432;28;20194;-62
2021/12/28 08:05:50;;;;;;;55.50;25.80;;;1.90;87.00;;;;;;6335077;28;20203;-62
2021/12/28 08:08:51;;;;;;;42.50;20.10;;;1.90;87.70;;;;;;6345063;28;20241;-63
2021/12/28 08:11:52;;;;;;;38.13;19.90;;;1.90;88.00;;;;;;6335754;28;20295;-63
2021/12/28 08:14:53;;;;;;;49.20;21.97;;;2.10;86.70;;;;;;6350005;28;20201;-63
2021/12/28 08:17:53;;;;;;;49.50;23.00;;;2.10;86.40;;;;;;6344323;28;20212;-63
2021/12/28 08:20:54;;;;;;;49.67;23.90;;;2.10;86.40;;;;;;6349325;27;20196;-63
2021/12/28 08:23:55;;;;;;;41.47;21.23;;;2.00;86.90;;;;;;6295439;28;20204;-63
2021/12/28 08:26:56;;;;;;;37.20;17.97;;;2.10;86.90;;;;;;6342256;28;20224;-63
2021/12/28 08:29:57;;;;;;;35.80;18.40;;;2.20;87.10;;;;;;6333315;28;20195;-63
2021/12/28 08:32:58;;;;;;;33.27;17.93;;;2.30;86.20;;;;;;6335830;28;20264;-63
2021/12/28 08:35:58;;;;;;;33.37;15.00;;;2.20;85.80;;;;;;6335146;28;20201;-63
2021/12/28 08:38:59;;;;;;;36.73;17.67;;;2.30;86.00;;;;;;6335425;28;20234;-63
2021/12/28 08:42:00;;;;;;;29.80;15.97;;;2.30;85.50;;;;;;6335801;28;20199;-63
2021/12/28 08:45:01;;;;;;;37.97;17.37;;;2.30;85.30;;;;;;6309197;28;20264;-64
2021/12/28 08:48:03;;;;;;;37.10;20.00;;;2.40;84.90;;;;;;6318448;28;20187;-64
2021/12/28 08:51:04;;;;;;;35.90;17.07;;;2.30;85.60;;;;;;6333485;28;20199;-63
2021/12/28 08:54:05;;;;;;;28.73;14.97;;;2.20;85.90;;;;;;6347177;28;20196;-63
2021/12/28 08:57:06;;;;;;;29.03;15.70;;;2.30;85.60;;;;;;6334272;28;20235;-63
2021/12/28 09:00:11;;;;;;;31.17;15.13;;;2.40;85.10;;;;;;6351251;28;20191;-63
2021/12/28 09:03:12;;;;;;;30.73;15.67;;;2.30;84.50;;;;;;6347830;28;20192;-63
2021/12/28 09:06:14;;;;;;;29.60;15.57;;;2.40;84.00;;;;;;6315087;28;20538;-63
2021/12/28 09:09:15;;;;;;;25.63;12.73;;;2.30;84.90;;;;;;6327235;28;20635;-63
2021/12/28 09:12:16;;;;;;;21.20;12.03;;;2.40;84.40;;;;;;6325721;28;20243;-63
2021/12/28 09:15:17;;;;;;;24.80;13.47;;;2.40;83.90;;;;;;6320480;28;20188;-63
2021/12/28 09:18:18;;;;;;;20.33;11.47;;;2.30;83.90;;;;;;6360088;27;20220;-64
2021/12/28 09:21:19;;;;;;;22.97;13.90;;;2.40;83.70;;;;;;6318295;28;20192;-64
2021/12/28 09:24:19;;;;;;;19.50;12.17;;;2.30;84.20;;;;;;6333997;28;20187;-65
2021/12/28 09:27:20;;;;;;;23.73;13.80;;;2.40;84.10;;;;;;6332929;28;20220;-63
2021/12/28 09:30:22;;;;;;;22.33;12.67;;;2.30;84.30;;;;;;6350714;28;20225;-63
2021/12/28 09:33:24;;;;;;;22.83;13.37;;;2.40;83.90;;;;;;6317740;28;20204;-64
2021/12/28 09:36:26;;;;;;;24.90;13.70;;;2.40;84.00;;;;;;6350340;27;20224;-64
2021/12/28 09:39:28;;;;;;;20.43;11.67;;;2.50;83.70;;;;;;6333792;28;20224;-63
2021/12/28 09:42:29;;;;;;;23.70;13.60;;;2.50;84.00;;;;;;6333781;28;20211;-63
2021/12/28 09:45:31;;;;;;;18.80;10.37;;;2.60;83.90;;;;;;6312610;28;20192;-63
2021/12/28 09:48:33;;;;;;;24.17;12.97;;;2.60;83.50;;;;;;6331657;28;20229;-63
2021/12/28 09:51:34;;;;;;;22.60;12.57;;;2.70;83.40;;;;;;6325567;28;20647;-63
2021/12/28 09:54:35;;;;;;;23.67;13.27;;;2.60;83.30;;;;;;6306057;28;20198;-64
2021/12/28 09:57:36;;;;;;;29.77;14.73;;;2.60;83.80;;;;;;6346745;28;20230;-63
2021/12/28 10:00:37;;;;;;;26.53;15.20;;;2.70;83.50;;;;;;6325110;28;20192;-63
2021/12/28 10:03:38;;;;;;;25.27;13.63;;;2.70;83.50;;;;;;6361282;27;20194;-63
2021/12/28 10:06:39;;;;;;;26.63;14.27;;;2.70;83.40;;;;;;6311261;28;20195;-63
2021/12/28 10:09:40;;;;;;;23.17;14.07;;;2.60;82.50;;;;;;6346328;28;20240;-64
2021/12/28 10:12:44;;;;;;;28.63;15.27;;;2.60;83.00;;;;;;6332000;28;20243;-64
2021/12/28 10:15:46;;;;;;;25.20;13.73;;;2.50;83.60;;;;;;6328243;28;20200;-64
2021/12/28 10:18:47;;;;;;;26.33;13.93;;;2.50;83.20;;;;;;6344151;27;20219;-63
2021/12/28 10:21:49;;;;;;;25.23;14.03;;;2.40;82.50;;;;;;6319300;28;20219;-63
2021/12/28 10:24:54;;;;;;;26.73;15.17;;;2.40;84.20;;;;;;6326626;28;20230;-64
2021/12/28 10:28:05;;;;;;;25.77;13.97;;;2.30;84.20;;;;;;6331767;28;20279;-63
2021/12/28 10:31:18;;;;;;;31.57;15.37;;;2.40;84.60;;;;;;6343737;27;20201;-64
2021/12/28 10:34:19;;;;;;;28.43;14.47;;;2.50;84.00;;;;;;6355731;27;20207;-64
2021/12/28 10:37:24;;;;;;;26.67;14.07;;;2.40;83.60;;;;;;6333104;28;20206;-63
2021/12/28 10:40:34;;;;;;;31.80;15.83;;;2.70;83.60;;;;;;6348938;28;20188;-63
2021/12/28 10:43:38;;;;;;;28.47;15.37;;;2.70;83.50;;;;;;6339771;28;20184;-66
2021/12/28 10:46:39;;;;;;;30.27;15.67;;;2.80;82.60;;;;;;6366288;27;20199;-62
2021/12/28 10:49:41;;;;;;;30.47;17.00;;;2.90;82.90;;;;;;6349106;28;20222;-63
2021/12/28 10:52:49;;;;;;;30.97;16.17;;;2.70;83.60;;;;;;6324448;28;20234;-64
2021/12/28 10:55:55;;;;;;;33.10;17.47;;;2.80;83.50;;;;;;6348091;28;20310;-64
2021/12/28 10:58:56;;;;;;;30.80;16.67;;;2.90;83.20;;;;;;6330019;28;20215;-64
2021/12/28 11:01:56;;;;;;;33.07;16.30;;;2.90;82.60;;;;;;6350597;27;20188;-63
2021/12/28 11:04:57;;;;;;;29.93;16.17;;;2.90;82.70;;;;;;6334320;28;20241;-63
2021/12/28 11:07:59;;;;;;;32.20;17.43;;;2.80;82.80;;;;;;6332857;28;20203;-64
2021/12/28 11:11:12;;;;;;;32.70;16.50;;;2.80;83.10;;;;;;6327993;28;20267;-65
2021/12/28 11:14:17;;;;;;;20.20;12.17;;;2.80;83.80;;;;;;6360026;27;20198;-66
2021/12/28 11:17:18;;;;;;;28.63;14.93;;;2.90;83.20;;;;;;6344124;28;20211;-67
2021/12/28 11:20:30;;;;;;;29.00;15.27;;;3.00;82.70;;;;;;6349053;28;20244;-67
2021/12/28 11:23:31;;;;;;;35.57;18.23;;;2.90;82.50;;;;;;6330151;28;20262;-64
2021/12/28 11:26:35;;;;;;;33.20;18.20;;;2.80;83.00;;;;;;6330399;28;20187;-63
2021/12/28 11:29:38;;;;;;;27.23;15.70;;;2.80;83.50;;;;;;6346782;28;20192;-63
2021/12/28 11:32:38;;;;;;;29.73;16.53;;;2.80;82.90;;;;;;6363881;27;20250;-63
2021/12/28 11:35:39;;;;;;;33.70;16.17;;;2.70;83.60;;;;;;6331684;28;20646;-63
2021/12/28 11:38:41;;;;;;;33.33;16.97;;;2.60;84.00;;;;;;6327476;28;20207;-63
2021/12/28 11:41:43;;;;;;;32.10;16.73;;;2.60;83.80;;;;;;6340027;28;20180;-63
2021/12/28 11:44:44;;;;;;;30.50;15.57;;;2.70;83.40;;;;;;6359668;28;20195;-63
2021/12/28 11:47:45;;;;;;;37.30;18.33;;;2.70;84.00;;;;;;6331195;28;20191;-63
2021/12/28 11:50:46;;;;;;;30.57;16.57;;;2.80;83.60;;;;;;6331082;28;20206;-63
2021/12/28 11:53:49;;;;;;;32.27;16.77;;;2.80;83.30;;;;;;6331240;28;20200;-63
2021/12/28 11:56:57;;;;;;;34.07;18.73;;;2.70;83.70;;;;;;6305939;28;20216;-63
2021/12/28 12:00:06;;;;;;;36.20;18.93;;;2.70;83.20;;;;;;6354951;27;20189;-63
2021/12/28 12:03:39;;;;;;;38.60;19.80;;;2.50;83.70;;;;;;6339731;28;20181;-63
2021/12/28 12:07:22;;;;;;;35.33;19.60;;;2.60;84.20;;;;;;6354967;28;20177;-63
2021/12/28 12:10:27;;;;;;;42.97;20.90;;;2.60;84.20;;;;;;6311114;28;20228;-63
2021/12/28 12:13:30;;;;;;;37.50;20.93;;;2.50;84.30;;;;;;6325100;28;20249;-63
2021/12/28 12:16:30;;;;;;;35.33;18.17;;;2.50;84.30;;;;;;6326186;28;20215;-63
2021/12/28 12:20:00;;;;;;;39.10;18.47;;;2.60;84.10;;;;;;6324057;28;20211;-63
2021/12/28 12:23:40;;;;;;;37.17;18.20;;;2.40;83.80;;;;;;6353745;27;20203;-62
2021/12/28 12:26:41;;;;;;;27.50;15.73;;;2.40;84.10;;;;;;6332118;28;20196;-62
2021/12/28 12:29:42;;;;;;;31.57;16.30;;;2.40;84.30;;;;;;6344093;28;20192;-62
2021/12/28 12:33:05;;;;;;;36.67;18.57;;;2.60;84.20;;;;;;6317237;28;20219;-61
2021/12/28 12:36:10;;;;;;;31.03;16.67;;;2.50;84.60;;;;;;6359465;28;20193;-63
2021/12/28 12:39:11;;;;;;;31.80;17.60;;;2.50;84.80;;;;;;6357907;27;20188;-63
2021/12/28 12:42:19;;;;;;;34.77;17.10;;;2.60;84.80;;;;;;6368849;27;20210;-63
2021/12/28 12:46:01;;;;;;;40.40;19.43;;;2.90;83.80;;;;;;6335949;28;20188;-63
2021/12/28 12:49:09;;;;;;;35.43;18.83;;;2.70;84.60;;;;;;6345389;28;20324;-63
2021/12/28 12:52:18;;;;;;;41.63;20.13;;;2.70;84.50;;;;;;6347156;28;20195;-63
2021/12/28 12:55:35;;;;;;;35.17;20.17;;;2.70;83.80;;;;;;6314221;28;20204;-63
2021/12/28 12:58:41;;;;;;;34.50;18.67;;;2.60;84.50;;;;;;6363865;27;20216;-61
2021/12/28 13:01:42;;;;;;;32.47;18.73;;;2.60;84.70;;;;;;6326895;28;20192;-62
2021/12/28 13:04:45;;;;;;;35.13;18.80;;;2.60;84.10;;;;;;6332189;28;20654;-62
2021/12/28 13:07:47;;;;;;;41.33;21.07;;;2.60;84.10;;;;;;6329024;28;20208;-61
2021/12/28 13:10:48;;;;;;;38.53;20.70;;;2.60;84.40;;;;;;6320198;28;20239;-62
2021/12/28 13:13:50;;;;;;;43.33;21.00;;;2.50;84.80;;;;;;6322252;28;20188;-62
2021/12/28 13:16:58;;;;;;;32.10;17.40;;;2.60;85.60;;;;;;6332945;28;20291;-62
2021/12/28 13:20:02;;;;;;;33.73;17.77;;;2.60;85.50;;;;;;6337352;28;20188;-62
2021/12/28 13:23:06;;;;;;;36.77;19.90;;;2.80;84.40;;;;;;6335793;28;20188;-62
2021/12/28 13:26:06;;;;;;;34.97;19.00;;;2.80;84.30;;;;;;6343891;27;20187;-62
2021/12/28 13:29:08;;;;;;;35.90;19.50;;;2.80;84.30;;;;;;6328571;28;20256;-62
2021/12/28 13:32:25;;;;;;;39.63;19.73;;;2.80;83.80;;;;;;6320799;28;20203;-62
2021/12/28 13:35:27;;;;;;;34.73;19.87;;;2.70;84.70;;;;;;6337522;28;20644;-62
2021/12/28 13:38:28;;;;;;;35.97;19.63;;;2.80;84.20;;;;;;6332968;28;20675;-63
2021/12/28 13:41:28;;;;;;;37.97;19.87;;;2.80;84.80;;;;;;6321862;28;20241;-63
2021/12/28 13:44:29;;;;;;;37.27;19.57;;;2.70;84.80;;;;;;6330958;28;20306;-63
2021/12/28 13:47:30;;;;;;;33.00;16.77;;;2.70;84.20;;;;;;6344719;28;20279;-63
2021/12/28 13:50:31;;;;;;;34.20;17.37;;;2.70;84.50;;;;;;6327274;28;20295;-64
2021/12/28 13:53:46;;;;;;;34.23;18.30;;;2.80;84.10;;;;;;6319801;28;20199;-64
2021/12/28 13:56:49;;;;;;;34.83;19.57;;;2.90;84.10;;;;;;6339378;28;20224;-62
2021/12/28 13:59:54;;;;;;;32.97;17.47;;;2.80;84.80;;;;;;6343919;28;20200;-63
2021/12/28 14:02:58;;;;;;;32.93;17.20;;;2.90;84.60;;;;;;6360590;27;20203;-63
2021/12/28 14:06:00;;;;;;;36.53;18.70;;;3.00;84.20;;;;;;6318920;28;20216;-63
2021/12/28 14:09:04;;;;;;;36.10;20.67;;;3.00;82.70;;;;;;6326522;28;20247;-62
2021/12/28 14:12:08;;;;;;;40.63;20.80;;;3.10;82.60;;;;;;6322410;28;20840;-62
2021/12/28 14:15:13;;;;;;;34.67;19.83;;;2.90;83.30;;;;;;6331629;28;20221;-62
2021/12/28 14:18:37;;;;;;;39.00;19.30;;;2.80;83.60;;;;;;6325409;28;20221;-63
2021/12/28 14:21:44;;;;;;;32.97;19.03;;;2.80;83.60;;;;;;6341720;28;20235;-63
2021/12/28 14:24:51;;;;;;;35.50;19.07;;;2.70;83.50;;;;;;6309174;28;20344;-63
2021/12/28 14:27:56;;;;;;;34.57;18.80;;;2.60;84.20;;;;;;6336420;28;20192;-63
2021/12/28 14:31:16;;;;;;;35.20;18.87;;;2.60;84.20;;;;;;6317556;28;20200;-63
2021/12/28 14:34:31;;;;;;;30.63;16.20;;;2.50;84.60;;;;;;6356788;27;20655;-63
2021/12/28 14:37:35;;;;;;;34.57;15.97;;;2.60;84.40;;;;;;6365924;27;20257;-63
2021/12/28 14:40:36;;;;;;;30.90;17.90;;;2.50;84.50;;;;;;6340654;28;20188;-63
2021/12/28 14:43:37;;;;;;;29.73;16.80;;;2.60;84.40;;;;;;6343110;28;20214;-63
2021/12/28 14:46:38;;;;;;;27.90;14.40;;;2.60;84.80;;;;;;6325601;27;20202;-63
2021/12/28 14:49:40;;;;;;;32.77;15.60;;;2.60;84.50;;;;;;6357794;27;20188;-64
2021/12/28 14:52:49;;;;;;;33.87;18.50;;;2.60;84.50;;;;;;6304375;28;20258;-63
2021/12/28 14:55:53;;;;;;;34.70;16.97;;;2.60;84.70;;;;;;6345672;27;20189;-63
2021/12/28 14:58:54;;;;;;;29.70;17.10;;;2.50;84.60;;;;;;6313657;28;20216;-64
2021/12/28 15:01:57;;;;;;;25.47;13.93;;;2.50;85.00;;;;;;6313815;28;20222;-64
2021/12/28 15:05:01;;;;;;;30.17;15.87;;;2.50;84.70;;;;;;6290203;28;20201;-63
2021/12/28 15:08:06;;;;;;;27.13;14.87;;;2.60;84.00;;;;;;6345710;27;20216;-63
2021/12/28 15:11:07;;;;;;;30.50;17.20;;;2.60;84.10;;;;;;6348734;28;20235;-64
2021/12/28 15:14:08;;;;;;;29.00;16.67;;;2.50;84.00;;;;;;6323619;28;20197;-63
2021/12/28 15:17:09;;;;;;;27.50;15.50;;;2.40;84.50;;;;;;6333892;28;20265;-63
2021/12/28 15:20:12;;;;;;;32.47;17.67;;;2.50;84.30;;;;;;6340142;28;20203;-63
2021/12/28 15:23:14;;;;;;;30.87;15.97;;;2.30;84.70;;;;;;6368484;27;20192;-63
2021/12/28 15:26:14;;;;;;;29.80;16.27;;;2.30;85.30;;;;;;6337103;28;20204;-63
2021/12/28 15:29:16;;;;;;;29.47;16.10;;;2.40;84.00;;;;;;6308953;28;20195;-63
2021/12/28 15:32:17;;;;;;;27.90;15.30;;;2.30;84.00;;;;;;6320569;28;20291;-63
2021/12/28 15:35:27;;;;;;;27.10;15.60;;;2.30;84.20;;;;;;6322772;28;20194;-63
2021/12/28 15:38:28;;;;;;;32.27;16.27;;;2.30;84.30;;;;;;6350518;28;20212;-63
2021/12/28 15:41:28;;;;;;;30.07;15.77;;;2.20;84.60;;;;;;6331414;28;20183;-63